sensor_id;sensor_type;location;lat;lon;timestamp;pressure;altitude;pressure_sealevel;temperature;humidity
52105;BME280;38103;42.776;23.112;2023-02-20T00:02:21;94289.22;;;7.90;71.82
52105;BME280;38103;42.776;23.112;2023-02-20T00:04:46;94292.44;;;7.92;71.69
52105;BME280;38103;42.776;23.112;2023-02-20T00:07:12;94288.97;;;7.99;71.59
52105;BME280;38103;42.776;23.112;2023-02-20T00:09:38;94295.25;;;7.98;71.84
52105;BME280;38103;42.776;23.112;2023-02-20T00:12:03;94293.25;;;7.93;72.02
52105;BME280;38103;42.776;23.112;2023-02-20T00:14:29;94278.31;;;7.80;72.72
52105;BME280;38103;42.776;23.112;2023-02-20T00:16:54;94290.81;;;7.91;72.74
52105;BME280;38103;42.776;23.112;2023-02-20T00:19:20;94284.53;;;7.92;72.62
52105;BME280;38103;42.776;23.112;2023-02-20T00:21:46;94250.78;;;7.76;72.60
52105;BME280;38103;42.776;23.112;2023-02-20T00:24:13;94279.88;;;7.94;72.54
52105;BME280;38103;42.776;23.112;2023-02-20T00:26:38;94276.81;;;7.98;72.22
52105;BME280;38103;42.776;23.112;2023-02-20T00:29:03;94271.34;;;7.99;72.20
52105;BME280;38103;42.776;23.112;2023-02-20T00:31:29;94270.97;;;7.96;72.52
52105;BME280;38103;42.776;23.112;2023-02-20T00:33:54;94260.03;;;7.99;72.60
52105;BME280;38103;42.776;23.112;2023-02-20T00:36:19;94266.47;;;8.03;72.36
52105;BME280;38103;42.776;23.112;2023-02-20T00:38:45;94289.56;;;8.01;72.03
52105;BME280;38103;42.776;23.112;2023-02-20T00:41:12;94297.47;;;8.01;72.12
52105;BME280;38103;42.776;23.112;2023-02-20T00:43:39;94292.44;;;7.92;72.84
52105;BME280;38103;42.776;23.112;2023-02-20T00:46:05;94297.75;;;7.86;72.92
52105;BME280;38103;42.776;23.112;2023-02-20T00:48:30;94305.47;;;7.80;73.58
52105;BME280;38103;42.776;23.112;2023-02-20T00:50:56;94291.34;;;7.61;73.74
52105;BME280;38103;42.776;23.112;2023-02-20T00:53:21;94305.03;;;7.77;74.13
52105;BME280;38103;42.776;23.112;2023-02-20T00:55:47;94319.66;;;7.73;74.28
52105;BME280;38103;42.776;23.112;2023-02-20T00:58:13;94305.94;;;7.57;74.79
52105;BME280;38103;42.776;23.112;2023-02-20T01:00:38;94306.13;;;7.62;74.94
52105;BME280;38103;42.776;23.112;2023-02-20T01:03:03;94322.91;;;7.68;75.31
52105;BME280;38103;42.776;23.112;2023-02-20T01:05:29;94323.06;;;7.73;75.46
52105;BME280;38103;42.776;23.112;2023-02-20T01:07:54;94327.50;;;7.79;75.44
52105;BME280;38103;42.776;23.112;2023-02-20T01:10:19;94332.16;;;7.84;75.11
52105;BME280;38103;42.776;23.112;2023-02-20T01:12:45;94324.44;;;7.89;75.10
52105;BME280;38103;42.776;23.112;2023-02-20T01:15:11;94327.25;;;7.94;74.80
52105;BME280;38103;42.776;23.112;2023-02-20T01:17:38;94333.56;;;7.93;74.83
52105;BME280;38103;42.776;23.112;2023-02-20T01:20:04;94337.41;;;7.91;74.91
52105;BME280;38103;42.776;23.112;2023-02-20T01:22:29;94348.72;;;7.98;74.65
52105;BME280;38103;42.776;23.112;2023-02-20T01:24:54;94314.38;;;7.73;74.95
52105;BME280;38103;42.776;23.112;2023-02-20T01:27:20;94346.72;;;7.93;75.15
52105;BME280;38103;42.776;23.112;2023-02-20T01:29:45;94345.50;;;7.89;75.83
52105;BME280;38103;42.776;23.112;2023-02-20T01:32:11;94337.00;;;7.87;76.41
52105;BME280;38103;42.776;23.112;2023-02-20T01:34:37;94344.34;;;7.71;77.90
52105;BME280;38103;42.776;23.112;2023-02-20T01:37:03;94335.44;;;7.66;79.00
52105;BME280;38103;42.776;23.112;2023-02-20T01:39:28;94324.13;;;7.65;79.31
52105;BME280;38103;42.776;23.112;2023-02-20T01:42:00;94338.28;;;7.64;80.02
52105;BME280;38103;42.776;23.112;2023-02-20T01:44:31;94347.63;;;7.46;81.54
52105;BME280;38103;42.776;23.112;2023-02-20T01:46:58;94352.09;;;7.39;82.85
52105;BME280;38103;42.776;23.112;2023-02-20T01:52:06;94329.03;;;7.14;86.06
52105;BME280;38103;42.776;23.112;2023-02-20T01:54:35;94339.16;;;7.17;86.40
52105;BME280;38103;42.776;23.112;2023-02-20T01:57:04;94329.47;;;7.11;85.95
52105;BME280;38103;42.776;23.112;2023-02-20T01:59:32;94313.28;;;6.73;85.91
52105;BME280;38103;42.776;23.112;2023-02-20T02:02:00;94353.34;;;6.96;86.23
52105;BME280;38103;42.776;23.112;2023-02-20T02:04:26;94353.31;;;7.02;85.77
52105;BME280;38103;42.776;23.112;2023-02-20T02:06:53;94346.44;;;7.01;85.83
52105;BME280;38103;42.776;23.112;2023-02-20T02:09:42;94339.56;;;6.87;85.82
52105;BME280;38103;42.776;23.112;2023-02-20T02:12:12;94344.22;;;6.85;85.90
52105;BME280;38103;42.776;23.112;2023-02-20T02:14:38;94346.03;;;6.77;86.44
52105;BME280;38103;42.776;23.112;2023-02-20T02:30:54;94367.38;;;6.47;87.50
52105;BME280;38103;42.776;23.112;2023-02-20T02:39:22;94368.94;;;6.21;88.95
52105;BME280;38103;42.776;23.112;2023-02-20T02:41:58;94368.91;;;6.14;89.46
52105;BME280;38103;42.776;23.112;2023-02-20T02:44:33;94318.25;;;5.78;90.10
52105;BME280;38103;42.776;23.112;2023-02-20T02:47:12;94298.38;;;5.55;90.65
52105;BME280;38103;42.776;23.112;2023-02-20T02:52:23;94366.53;;;5.84;91.60
52105;BME280;38103;42.776;23.112;2023-02-20T02:55:09;94371.09;;;5.75;92.05
52105;BME280;38103;42.776;23.112;2023-02-20T02:57:34;94395.81;;;5.87;92.00
52105;BME280;38103;42.776;23.112;2023-02-20T03:00:09;94396.22;;;5.91;91.58
52105;BME280;38103;42.776;23.112;2023-02-20T03:02:43;94393.38;;;5.86;91.60
52105;BME280;38103;42.776;23.112;2023-02-20T03:05:14;94391.34;;;5.88;91.23
52105;BME280;38103;42.776;23.112;2023-02-20T03:07:43;94386.09;;;5.88;90.88
52105;BME280;38103;42.776;23.112;2023-02-20T03:10:12;94393.38;;;5.86;90.71
52105;BME280;38103;42.776;23.112;2023-02-20T03:12:48;94392.19;;;5.88;90.15
52105;BME280;38103;42.776;23.112;2023-02-20T03:15:27;94388.94;;;5.86;89.87
52105;BME280;38103;42.776;23.112;2023-02-20T03:18:10;94406.31;;;5.87;90.08
52105;BME280;38103;42.776;23.112;2023-02-20T03:20:43;94392.25;;;5.66;90.26
52105;BME280;38103;42.776;23.112;2023-02-20T03:23:13;94386.34;;;5.57;90.27
52105;BME280;38103;42.776;23.112;2023-02-20T03:26:04;94423.44;;;5.83;90.27
52105;BME280;38103;42.776;23.112;2023-02-20T03:28:39;94424.84;;;5.79;90.90
52105;BME280;38103;42.776;23.112;2023-02-20T03:31:06;94425.25;;;5.82;90.25
52105;BME280;38103;42.776;23.112;2023-02-20T03:33:49;94403.59;;;5.74;89.97
52105;BME280;38103;42.776;23.112;2023-02-20T03:36:52;94410.31;;;5.83;89.59
52105;BME280;38103;42.776;23.112;2023-02-20T03:39:43;94410.69;;;5.80;89.85
52105;BME280;38103;42.776;23.112;2023-02-20T03:42:28;94419.59;;;5.79;89.84
52105;BME280;38103;42.776;23.112;2023-02-20T03:45:14;94436.63;;;5.90;89.24
52105;BME280;38103;42.776;23.112;2023-02-20T03:47:43;94432.78;;;5.92;89.35
52105;BME280;38103;42.776;23.112;2023-02-20T03:50:12;94435.81;;;5.96;90.10
52105;BME280;38103;42.776;23.112;2023-02-20T03:52:57;94439.91;;;6.06;90.10
52105;BME280;38103;42.776;23.112;2023-02-20T03:55:22;94437.47;;;6.04;90.31
52105;BME280;38103;42.776;23.112;2023-02-20T03:57:51;94453.72;;;6.14;90.04
52105;BME280;38103;42.776;23.112;2023-02-20T04:00:21;94451.75;;;6.23;89.91
52105;BME280;38103;42.776;23.112;2023-02-20T04:02:50;94413.16;;;5.88;91.06
52105;BME280;38103;42.776;23.112;2023-02-20T04:05:25;94452.13;;;6.20;90.38
52105;BME280;38103;42.776;23.112;2023-02-20T04:07:58;94438.28;;;6.04;90.61
52105;BME280;38103;42.776;23.112;2023-02-20T04:10:28;94456.78;;;6.18;90.28
52105;BME280;38103;42.776;23.112;2023-02-20T04:12:56;94455.97;;;6.18;89.96
52105;BME280;38103;42.776;23.112;2023-02-20T04:15:22;94438.78;;;6.15;88.07
52105;BME280;38103;42.776;23.112;2023-02-20T04:17:54;94462.66;;;6.27;87.51
52105;BME280;38103;42.776;23.112;2023-02-20T04:20:21;94454.94;;;6.19;87.23
52105;BME280;38103;42.776;23.112;2023-02-20T04:22:48;94449.47;;;6.13;87.38
52105;BME280;38103;42.776;23.112;2023-02-20T04:25:38;94443.34;;;6.06;87.40
52105;BME280;38103;42.776;23.112;2023-02-20T04:28:06;94430.53;;;5.89;87.34
52105;BME280;38103;42.776;23.112;2023-02-20T04:30:32;94434.53;;;5.85;86.89
52105;BME280;38103;42.776;23.112;2023-02-20T04:32:57;94442.59;;;5.77;87.20
52105;BME280;38103;42.776;23.112;2023-02-20T04:35:23;94449.19;;;5.73;87.21
52105;BME280;38103;42.776;23.112;2023-02-20T04:37:49;94452.38;;;5.61;87.04
52105;BME280;38103;42.776;23.112;2023-02-20T04:40:19;94467.84;;;5.56;86.74
52105;BME280;38103;42.776;23.112;2023-02-20T04:42:44;94462.13;;;5.45;86.62
52105;BME280;38103;42.776;23.112;2023-02-20T04:45:09;94459.63;;;5.37;85.81
52105;BME280;38103;42.776;23.112;2023-02-20T04:47:35;94460.91;;;5.19;85.63
52105;BME280;38103;42.776;23.112;2023-02-20T04:50:00;94465.06;;;5.13;85.06
52105;BME280;38103;42.776;23.112;2023-02-20T04:52:26;94458.53;;;5.02;84.71
52105;BME280;38103;42.776;23.112;2023-02-20T04:54:51;94458.66;;;4.94;84.25
52105;BME280;38103;42.776;23.112;2023-02-20T04:57:18;94462.13;;;4.79;84.30
52105;BME280;38103;42.776;23.112;2023-02-20T04:59:43;94457.59;;;4.88;83.11
52105;BME280;38103;42.776;23.112;2023-02-20T05:02:08;94459.59;;;4.86;82.57
52105;BME280;38103;42.776;23.112;2023-02-20T05:04:34;94463.19;;;4.85;81.96
52105;BME280;38103;42.776;23.112;2023-02-20T05:07:00;94467.25;;;4.88;81.76
52105;BME280;38103;42.776;23.112;2023-02-20T05:09:26;94449.66;;;4.82;81.66
52105;BME280;38103;42.776;23.112;2023-02-20T05:11:52;94456.16;;;4.86;81.85
52105;BME280;38103;42.776;23.112;2023-02-20T05:14:19;94464.00;;;4.86;81.83
52105;BME280;38103;42.776;23.112;2023-02-20T05:16:45;94463.81;;;4.87;82.30
52105;BME280;38103;42.776;23.112;2023-02-20T05:19:11;94468.50;;;4.92;82.06
52105;BME280;38103;42.776;23.112;2023-02-20T05:21:40;94472.31;;;4.89;82.33
52105;BME280;38103;42.776;23.112;2023-02-20T05:24:25;94474.13;;;4.89;82.64
52105;BME280;38103;42.776;23.112;2023-02-20T05:26:52;94465.00;;;4.85;83.86
52105;BME280;38103;42.776;23.112;2023-02-20T05:29:17;94465.38;;;4.82;84.68
52105;BME280;38103;42.776;23.112;2023-02-20T05:31:43;94464.44;;;4.89;85.02
52105;BME280;38103;42.776;23.112;2023-02-20T05:34:08;94481.09;;;5.03;84.91
52105;BME280;38103;42.776;23.112;2023-02-20T05:36:33;94487.97;;;5.05;84.87
52105;BME280;38103;42.776;23.112;2023-02-20T05:38:59;94488.84;;;5.12;84.36
52105;BME280;38103;42.776;23.112;2023-02-20T05:41:24;94491.72;;;5.17;84.57
52105;BME280;38103;42.776;23.112;2023-02-20T05:43:51;94500.78;;;5.36;83.96
52105;BME280;38103;42.776;23.112;2023-02-20T05:46:18;94511.44;;;5.57;82.76
52105;BME280;38103;42.776;23.112;2023-02-20T05:48:48;94511.91;;;5.67;81.80
52105;BME280;38103;42.776;23.112;2023-02-20T05:51:26;94514.91;;;5.86;80.95
52105;BME280;38103;42.776;23.112;2023-02-20T05:53:51;94519.06;;;6.02;79.47
52105;BME280;38103;42.776;23.112;2023-02-20T05:56:17;94516.72;;;6.14;78.80
52105;BME280;38103;42.776;23.112;2023-02-20T05:58:43;94500.59;;;6.18;77.40
52105;BME280;38103;42.776;23.112;2023-02-20T06:01:19;94488.84;;;6.13;76.58
52105;BME280;38103;42.776;23.112;2023-02-20T06:03:44;94515.25;;;6.41;75.34
52105;BME280;38103;42.776;23.112;2023-02-20T06:06:10;94520.13;;;6.44;74.13
52105;BME280;38103;42.776;23.112;2023-02-20T06:08:36;94467.84;;;6.13;73.61
52105;BME280;38103;42.776;23.112;2023-02-20T06:11:01;94521.38;;;6.48;73.63
52105;BME280;38103;42.776;23.112;2023-02-20T06:13:26;94524.22;;;6.53;73.38
52105;BME280;38103;42.776;23.112;2023-02-20T06:15:52;94526.91;;;6.67;72.35
52105;BME280;38103;42.776;23.112;2023-02-20T06:18:17;94535.25;;;6.77;72.17
52105;BME280;38103;42.776;23.112;2023-02-20T06:20:42;94535.28;;;6.91;71.30
52105;BME280;38103;42.776;23.112;2023-02-20T06:23:08;94547.50;;;7.19;69.78
52105;BME280;38103;42.776;23.112;2023-02-20T06:25:33;94549.56;;;7.24;69.59
52105;BME280;38103;42.776;23.112;2023-02-20T06:27:58;94555.59;;;7.24;70.09
52105;BME280;38103;42.776;23.112;2023-02-20T06:30:24;94552.81;;;7.40;68.31
52105;BME280;38103;42.776;23.112;2023-02-20T06:32:49;94561.34;;;7.48;68.03
52105;BME280;38103;42.776;23.112;2023-02-20T06:35:15;94558.88;;;7.26;68.51
52105;BME280;38103;42.776;23.112;2023-02-20T06:37:40;94564.09;;;7.13;69.10
52105;BME280;38103;42.776;23.112;2023-02-20T06:40:06;94577.78;;;7.01;69.11
52105;BME280;38103;42.776;23.112;2023-02-20T06:42:31;94583.63;;;6.90;69.50
52105;BME280;38103;42.776;23.112;2023-02-20T06:44:56;94588.72;;;6.98;69.40
52105;BME280;38103;42.776;23.112;2023-02-20T06:47:22;94581.59;;;6.92;68.85
52105;BME280;38103;42.776;23.112;2023-02-20T06:49:47;94584.66;;;6.96;68.29
52105;BME280;38103;42.776;23.112;2023-02-20T06:52:12;94588.31;;;7.01;68.15
52105;BME280;38103;42.776;23.112;2023-02-20T06:54:38;94594.06;;;7.25;67.21
52105;BME280;38103;42.776;23.112;2023-02-20T06:57:04;94602.19;;;7.31;66.72
52105;BME280;38103;42.776;23.112;2023-02-20T06:59:30;94595.94;;;7.45;65.07
52105;BME280;38103;42.776;23.112;2023-02-20T07:01:55;94594.53;;;7.49;64.28
52105;BME280;38103;42.776;23.112;2023-02-20T07:04:23;94611.00;;;7.92;63.59
52105;BME280;38103;42.776;23.112;2023-02-20T07:06:50;94615.25;;;8.27;61.40
52105;BME280;38103;42.776;23.112;2023-02-20T07:09:16;94621.34;;;8.42;60.25
52105;BME280;38103;42.776;23.112;2023-02-20T07:11:42;94617.69;;;8.43;58.91
52105;BME280;38103;42.776;23.112;2023-02-20T07:14:08;94624.78;;;8.49;58.14
52105;BME280;38103;42.776;23.112;2023-02-20T07:16:33;94625.81;;;8.62;57.76
52105;BME280;38103;42.776;23.112;2023-02-20T07:18:58;94627.84;;;8.59;57.71
52105;BME280;38103;42.776;23.112;2023-02-20T07:21:24;94636.34;;;8.34;57.78
52105;BME280;38103;42.776;23.112;2023-02-20T07:23:49;94634.13;;;8.04;57.88
52105;BME280;38103;42.776;23.112;2023-02-20T07:26:21;94631.88;;;8.01;58.67
52105;BME280;38103;42.776;23.112;2023-02-20T07:28:48;94630.25;;;8.00;58.77
52105;BME280;38103;42.776;23.112;2023-02-20T07:31:13;94636.94;;;8.02;58.22
52105;BME280;38103;42.776;23.112;2023-02-20T07:33:39;94636.34;;;8.00;57.74
52105;BME280;38103;42.776;23.112;2023-02-20T07:36:07;94625.78;;;7.87;58.23
52105;BME280;38103;42.776;23.112;2023-02-20T07:38:32;94629.84;;;7.96;56.44
52105;BME280;38103;42.776;23.112;2023-02-20T07:40:58;94641.59;;;7.93;55.78
52105;BME280;38103;42.776;23.112;2023-02-20T07:43:23;94648.06;;;7.91;56.22
52105;BME280;38103;42.776;23.112;2023-02-20T07:45:48;94651.91;;;8.02;55.73
52105;BME280;38103;42.776;23.112;2023-02-20T07:48:14;94653.97;;;8.13;54.92
52105;BME280;38103;42.776;23.112;2023-02-20T07:50:39;94643.63;;;8.53;53.76
52105;BME280;38103;42.776;23.112;2023-02-20T07:53:04;94647.25;;;8.79;52.85
52105;BME280;38103;42.776;23.112;2023-02-20T07:55:30;94641.09;;;9.19;51.81
52105;BME280;38103;42.776;23.112;2023-02-20T07:57:55;94645.53;;;9.25;50.74
52105;BME280;38103;42.776;23.112;2023-02-20T08:00:24;94644.56;;;9.66;50.16
52105;BME280;38103;42.776;23.112;2023-02-20T08:02:50;94654.13;;;9.92;47.96
52105;BME280;38103;42.776;23.112;2023-02-20T08:05:16;94654.81;;;10.13;47.73
52105;BME280;38103;42.776;23.112;2023-02-20T08:07:45;94663.31;;;10.22;47.02
52105;BME280;38103;42.776;23.112;2023-02-20T08:10:12;94661.88;;;10.52;46.80
52105;BME280;38103;42.776;23.112;2023-02-20T08:12:37;94651.09;;;10.79;45.55
52105;BME280;38103;42.776;23.112;2023-02-20T08:15:03;94657.28;;;10.92;45.45
52105;BME280;38103;42.776;23.112;2023-02-20T08:17:28;94660.00;;;11.04;44.73
52105;BME280;38103;42.776;23.112;2023-02-20T08:19:54;94651.44;;;10.83;44.59
52105;BME280;38103;42.776;23.112;2023-02-20T08:22:19;94639.44;;;10.61;45.98
52105;BME280;38103;42.776;23.112;2023-02-20T08:24:44;94647.28;;;10.43;45.66
52105;BME280;38103;42.776;23.112;2023-02-20T08:27:10;94654.34;;;10.23;46.71
52105;BME280;38103;42.776;23.112;2023-02-20T08:29:35;94656.53;;;10.01;46.96
52105;BME280;38103;42.776;23.112;2023-02-20T08:32:01;94656.25;;;9.77;47.28
52105;BME280;38103;42.776;23.112;2023-02-20T08:34:26;94663.94;;;9.85;47.97
52105;BME280;38103;42.776;23.112;2023-02-20T08:36:51;94651.19;;;10.08;47.47
52105;BME280;38103;42.776;23.112;2023-02-20T08:39:17;94648.81;;;9.99;47.92
52105;BME280;38103;42.776;23.112;2023-02-20T08:41:46;94640.50;;;9.95;46.89
52105;BME280;38103;42.776;23.112;2023-02-20T08:44:12;94651.84;;;10.03;47.27
52105;BME280;38103;42.776;23.112;2023-02-20T08:46:44;94634.56;;;10.07;47.10
52105;BME280;38103;42.776;23.112;2023-02-20T08:49:10;94645.13;;;10.07;46.88
52105;BME280;38103;42.776;23.112;2023-02-20T08:51:35;94645.88;;;10.14;46.28
52105;BME280;38103;42.776;23.112;2023-02-20T08:54:01;94653.53;;;9.90;46.79
52105;BME280;38103;42.776;23.112;2023-02-20T08:56:28;94634.63;;;9.93;47.77
52105;BME280;38103;42.776;23.112;2023-02-20T08:58:54;94647.06;;;10.19;48.20
52105;BME280;38103;42.776;23.112;2023-02-20T09:01:19;94635.84;;;10.49;45.95
52105;BME280;38103;42.776;23.112;2023-02-20T09:03:44;94637.88;;;10.54;45.92
52105;BME280;38103;42.776;23.112;2023-02-20T09:06:10;94633.38;;;10.54;44.70
52105;BME280;38103;42.776;23.112;2023-02-20T09:08:35;94632.53;;;10.60;44.95
52105;BME280;38103;42.776;23.112;2023-02-20T09:11:00;94637.81;;;10.60;45.22
52105;BME280;38103;42.776;23.112;2023-02-20T09:13:26;94636.06;;;10.73;45.04
52105;BME280;38103;42.776;23.112;2023-02-20T09:15:51;94628.81;;;10.68;45.08
52105;BME280;38103;42.776;23.112;2023-02-20T09:18:16;94620.94;;;10.61;45.42
52105;BME280;38103;42.776;23.112;2023-02-20T09:20:42;94622.38;;;10.57;46.20
52105;BME280;38103;42.776;23.112;2023-02-20T09:23:08;94613.78;;;10.62;45.86
52105;BME280;38103;42.776;23.112;2023-02-20T09:25:34;94606.16;;;10.54;46.28
52105;BME280;38103;42.776;23.112;2023-02-20T09:28:00;94606.19;;;10.47;45.98
52105;BME280;38103;42.776;23.112;2023-02-20T09:30:25;94606.19;;;10.47;45.92
52105;BME280;38103;42.776;23.112;2023-02-20T09:32:51;94613.13;;;10.41;46.74
52105;BME280;38103;42.776;23.112;2023-02-20T09:35:20;94611.81;;;10.57;46.35
52105;BME280;38103;42.776;23.112;2023-02-20T09:37:45;94599.63;;;10.56;46.70
52105;BME280;38103;42.776;23.112;2023-02-20T09:40:12;94605.22;;;10.67;45.70
52105;BME280;38103;42.776;23.112;2023-02-20T09:42:58;94607.63;;;10.68;45.24
52105;BME280;38103;42.776;23.112;2023-02-20T09:45:31;94612.28;;;10.73;44.31
52105;BME280;38103;42.776;23.112;2023-02-20T09:50:33;94616.00;;;10.39;44.25
52105;BME280;38103;42.776;23.112;2023-02-20T09:53:06;94612.03;;;10.30;44.80
52105;BME280;38103;42.776;23.112;2023-02-20T09:55:40;94589.34;;;10.15;45.71
52105;BME280;38103;42.776;23.112;2023-02-20T09:58:06;94570.34;;;10.06;45.51
52105;BME280;38103;42.776;23.112;2023-02-20T10:00:36;94612.13;;;10.42;45.24
52105;BME280;38103;42.776;23.112;2023-02-20T10:05:44;94606.56;;;10.25;43.13
52105;BME280;38103;42.776;23.112;2023-02-20T10:08:10;94604.53;;;10.27;43.58
52105;BME280;38103;42.776;23.112;2023-02-20T10:10:39;94600.69;;;10.23;44.10
52105;BME280;38103;42.776;23.112;2023-02-20T10:15:56;94589.13;;;10.43;43.48
52105;BME280;38103;42.776;23.112;2023-02-20T10:18:45;94595.59;;;10.47;44.52
52105;BME280;38103;42.776;23.112;2023-02-20T10:23:57;94588.59;;;10.59;44.57
52105;BME280;38103;42.776;23.112;2023-02-20T10:26:31;94589.38;;;10.67;43.28
52105;BME280;38103;42.776;23.112;2023-02-20T10:29:09;94596.25;;;10.68;42.84
52105;BME280;38103;42.776;23.112;2023-02-20T10:31:43;94583.75;;;10.56;43.39
52105;BME280;38103;42.776;23.112;2023-02-20T10:34:13;94603.59;;;10.66;43.32
52105;BME280;38103;42.776;23.112;2023-02-20T10:36:49;94609.63;;;10.73;43.56
52105;BME280;38103;42.776;23.112;2023-02-20T10:39:18;94598.19;;;10.79;42.81
52105;BME280;38103;42.776;23.112;2023-02-20T10:44:34;94580.69;;;10.78;42.66
52105;BME280;38103;42.776;23.112;2023-02-20T10:47:09;94588.63;;;10.97;43.13
52105;BME280;38103;42.776;23.112;2023-02-20T10:49:51;94577.75;;;11.05;43.88
52105;BME280;38103;42.776;23.112;2023-02-20T10:52:25;94581.13;;;11.13;42.38
52105;BME280;38103;42.776;23.112;2023-02-20T10:55:04;94571.78;;;11.10;42.04
52105;BME280;38103;42.776;23.112;2023-02-20T10:57:37;94572.88;;;11.21;41.84
52105;BME280;38103;42.776;23.112;2023-02-20T11:00:15;94572.69;;;11.35;41.74
52105;BME280;38103;42.776;23.112;2023-02-20T11:02:46;94554.94;;;11.23;41.98
52105;BME280;38103;42.776;23.112;2023-02-20T11:05:19;94557.78;;;11.40;41.80
52105;BME280;38103;42.776;23.112;2023-02-20T11:07:48;94556.25;;;11.33;41.26
52105;BME280;38103;42.776;23.112;2023-02-20T11:10:14;94561.41;;;11.27;42.48
52105;BME280;38103;42.776;23.112;2023-02-20T11:12:49;94550.22;;;11.25;41.24
52105;BME280;38103;42.776;23.112;2023-02-20T11:15:19;94566.53;;;11.41;41.18
52105;BME280;38103;42.776;23.112;2023-02-20T11:17:48;94567.69;;;11.45;41.02
52105;BME280;38103;42.776;23.112;2023-02-20T11:22:57;94579.75;;;11.41;40.58
52105;BME280;38103;42.776;23.112;2023-02-20T11:25:28;94572.09;;;11.51;40.62
52105;BME280;38103;42.776;23.112;2023-02-20T11:28:23;94566.47;;;11.60;41.04
52105;BME280;38103;42.776;23.112;2023-02-20T11:31:02;94563.06;;;11.71;41.24
52105;BME280;38103;42.776;23.112;2023-02-20T11:33:32;94570.06;;;11.78;40.31
52105;BME280;38103;42.776;23.112;2023-02-20T11:36:11;94527.38;;;11.43;40.18
52105;BME280;38103;42.776;23.112;2023-02-20T11:38:37;94571.81;;;11.72;39.40
52105;BME280;38103;42.776;23.112;2023-02-20T11:41:12;94566.59;;;11.65;40.15
52105;BME280;38103;42.776;23.112;2023-02-20T11:43:46;94581.78;;;11.58;40.08
52105;BME280;38103;42.776;23.112;2023-02-20T11:46:18;94568.66;;;11.63;39.53
52105;BME280;38103;42.776;23.112;2023-02-20T11:51:45;94566.72;;;11.70;40.25
52105;BME280;38103;42.776;23.112;2023-02-20T11:54:25;94564.19;;;11.76;39.52
52105;BME280;38103;42.776;23.112;2023-02-20T11:56:54;94556.13;;;11.70;39.61
52105;BME280;38103;42.776;23.112;2023-02-20T11:59:30;94551.25;;;11.55;39.27
52105;BME280;38103;42.776;23.112;2023-02-20T12:07:34;94538.50;;;11.64;39.41
52105;BME280;38103;42.776;23.112;2023-02-20T12:10:09;94542.19;;;11.63;39.26
52105;BME280;38103;42.776;23.112;2023-02-20T12:12:38;94551.97;;;11.62;40.14
52105;BME280;38103;42.776;23.112;2023-02-20T12:15:11;94543.25;;;11.74;39.98
52105;BME280;38103;42.776;23.112;2023-02-20T12:17:43;94548.78;;;11.72;38.92
52105;BME280;38103;42.776;23.112;2023-02-20T12:20:20;94536.63;;;11.53;38.64
52105;BME280;38103;42.776;23.112;2023-02-20T12:29:50;94551.88;;;11.69;39.43
52105;BME280;38103;42.776;23.112;2023-02-20T12:32:46;94544.38;;;11.66;39.74
52105;BME280;38103;42.776;23.112;2023-02-20T12:35:21;94545.88;;;11.62;39.21
52105;BME280;38103;42.776;23.112;2023-02-20T12:38:15;94539.22;;;11.71;39.77
52105;BME280;38103;42.776;23.112;2023-02-20T12:49:48;94528.16;;;11.75;39.37
52105;BME280;38103;42.776;23.112;2023-02-20T12:52:44;94527.00;;;11.70;40.23
52105;BME280;38103;42.776;23.112;2023-02-20T12:55:31;94532.66;;;11.74;39.61
52105;BME280;38103;42.776;23.112;2023-02-20T13:00:40;94537.13;;;11.73;39.56
52105;BME280;38103;42.776;23.112;2023-02-20T13:06:01;94541.84;;;11.71;40.10
52105;BME280;38103;42.776;23.112;2023-02-20T13:08:31;94546.47;;;11.76;41.23
52105;BME280;38103;42.776;23.112;2023-02-20T13:11:00;94544.38;;;11.66;39.94
52105;BME280;38103;42.776;23.112;2023-02-20T13:21:57;94524.16;;;11.41;41.41
52105;BME280;38103;42.776;23.112;2023-02-20T13:26:48;94531.69;;;11.25;41.05
52105;BME280;38103;42.776;23.112;2023-02-20T13:29:21;94530.44;;;11.28;41.65
52105;BME280;38103;42.776;23.112;2023-02-20T13:36:46;94556.69;;;11.29;42.67
52105;BME280;38103;42.776;23.112;2023-02-20T13:44:44;94561.69;;;11.19;41.74
52105;BME280;38103;42.776;23.112;2023-02-20T13:52:31;94567.44;;;10.59;43.54
52105;BME280;38103;42.776;23.112;2023-02-20T14:00:24;94558.41;;;10.23;44.03
52105;BME280;38103;42.776;23.112;2023-02-20T14:02:50;94547.88;;;10.16;44.75
52105;BME280;38103;42.776;23.112;2023-02-20T14:05:22;94567.78;;;10.19;44.88
52105;BME280;38103;42.776;23.112;2023-02-20T14:07:48;94567.38;;;10.22;44.87
52105;BME280;38103;42.776;23.112;2023-02-20T14:12:57;94575.13;;;10.16;45.12
52105;BME280;38103;42.776;23.112;2023-02-20T14:15:24;94574.13;;;10.17;45.30
52105;BME280;38103;42.776;23.112;2023-02-20T14:17:50;94579.56;;;10.23;44.87
52105;BME280;38103;42.776;23.112;2023-02-20T14:20:25;94550.13;;;9.93;45.38
52105;BME280;38103;42.776;23.112;2023-02-20T14:23:26;94577.09;;;10.28;45.38
52105;BME280;38103;42.776;23.112;2023-02-20T14:26:00;94575.22;;;10.28;45.66
52105;BME280;38103;42.776;23.112;2023-02-20T14:28:28;94567.75;;;10.25;45.48
52105;BME280;38103;42.776;23.112;2023-02-20T14:31:24;94560.03;;;10.24;45.99
52105;BME280;38103;42.776;23.112;2023-02-20T14:33:55;94516.03;;;9.85;45.92
52105;BME280;38103;42.776;23.112;2023-02-20T14:39:11;94562.72;;;9.91;46.56
52105;BME280;38103;42.776;23.112;2023-02-20T14:41:52;94564.00;;;9.82;46.99
52105;BME280;38103;42.776;23.112;2023-02-20T14:44:19;94578.66;;;9.78;47.60
52105;BME280;38103;42.776;23.112;2023-02-20T14:46:46;94571.34;;;9.80;46.72
52105;BME280;38103;42.776;23.112;2023-02-20T14:49:16;94579.53;;;9.71;47.18
52105;BME280;38103;42.776;23.112;2023-02-20T14:51:46;94599.03;;;9.70;47.32
52105;BME280;38103;42.776;23.112;2023-02-20T14:54:16;94600.66;;;9.71;47.88
52105;BME280;38103;42.776;23.112;2023-02-20T14:56:42;94614.09;;;9.63;47.89
52105;BME280;38103;42.776;23.112;2023-02-20T14:59:36;94618.16;;;9.59;48.10